sensor_id;sensor_type;location;lat;lon;timestamp;P1;durP1;ratioP1;P2;durP2;ratioP2
19038;SDS011;9652;49.014;12.052;2023-04-25T00:02:00;13.23;;;2.73;;
19038;SDS011;9652;49.014;12.052;2023-04-25T00:04:28;2.93;;;2.73;;
19038;SDS011;9652;49.014;12.052;2023-04-25T00:06:58;2.40;;;2.30;;
19038;SDS011;9652;49.014;12.052;2023-04-25T00:09:28;2.67;;;2.47;;
19038;SDS011;9652;49.014;12.052;2023-04-25T00:11:56;2.50;;;2.30;;
19038;SDS011;9652;49.014;12.052;2023-04-25T00:14:23;2.53;;;2.43;;
19038;SDS011;9652;49.014;12.052;2023-04-25T00:16:50;2.70;;;2.50;;
19038;SDS011;9652;49.014;12.052;2023-04-25T00:19:18;3.13;;;2.03;;
19038;SDS011;9652;49.014;12.052;2023-04-25T00:21:45;3.00;;;2.53;;
19038;SDS011;9652;49.014;12.052;2023-04-25T00:24:12;2.37;;;2.27;;
19038;SDS011;9652;49.014;12.052;2023-04-25T00:26:41;2.70;;;2.50;;
19038;SDS011;9652;49.014;12.052;2023-04-25T00:29:08;2.23;;;2.10;;
19038;SDS011;9652;49.014;12.052;2023-04-25T00:31:36;2.80;;;2.60;;
19038;SDS011;9652;49.014;12.052;2023-04-25T00:34:04;2.20;;;2.10;;
19038;SDS011;9652;49.014;12.052;2023-04-25T00:36:32;2.33;;;2.13;;
19038;SDS011;9652;49.014;12.052;2023-04-25T00:38:59;2.50;;;2.30;;
19038;SDS011;9652;49.014;12.052;2023-04-25T00:41:26;2.93;;;2.07;;
19038;SDS011;9652;49.014;12.052;2023-04-25T00:43:56;2.60;;;2.40;;
19038;SDS011;9652;49.014;12.052;2023-04-25T00:46:25;2.73;;;2.53;;
19038;SDS011;9652;49.014;12.052;2023-04-25T00:48:52;2.27;;;2.07;;
19038;SDS011;9652;49.014;12.052;2023-04-25T00:51:20;2.87;;;2.67;;
19038;SDS011;9652;49.014;12.052;2023-04-25T00:53:48;2.70;;;2.50;;
19038;SDS011;9652;49.014;12.052;2023-04-25T00:56:16;2.73;;;2.47;;
19038;SDS011;9652;49.014;12.052;2023-04-25T00:58:43;3.30;;;3.10;;
19038;SDS011;9652;49.014;12.052;2023-04-25T01:01:12;2.83;;;2.63;;
19038;SDS011;9652;49.014;12.052;2023-04-25T01:03:39;2.43;;;2.23;;
19038;SDS011;9652;49.014;12.052;2023-04-25T01:06:07;3.10;;;2.90;;
19038;SDS011;9652;49.014;12.052;2023-04-25T01:08:36;2.80;;;2.60;;
19038;SDS011;9652;49.014;12.052;2023-04-25T01:11:05;2.97;;;2.77;;
19038;SDS011;9652;49.014;12.052;2023-04-25T01:13:32;3.13;;;2.93;;
19038;SDS011;9652;49.014;12.052;2023-04-25T01:16:01;2.90;;;2.70;;
19038;SDS011;9652;49.014;12.052;2023-04-25T01:18:30;2.90;;;2.70;;
19038;SDS011;9652;49.014;12.052;2023-04-25T01:21:02;3.37;;;3.07;;
19038;SDS011;9652;49.014;12.052;2023-04-25T01:23:35;3.73;;;3.27;;
19038;SDS011;9652;49.014;12.052;2023-04-25T01:26:03;3.30;;;3.00;;
19038;SDS011;9652;49.014;12.052;2023-04-25T01:28:32;3.30;;;3.10;;
19038;SDS011;9652;49.014;12.052;2023-04-25T01:31:01;3.77;;;3.33;;
19038;SDS011;9652;49.014;12.052;2023-04-25T01:33:29;3.20;;;3.00;;
19038;SDS011;9652;49.014;12.052;2023-04-25T01:35:56;4.20;;;3.00;;
19038;SDS011;9652;49.014;12.052;2023-04-25T01:38:24;3.13;;;2.90;;
19038;SDS011;9652;49.014;12.052;2023-04-25T01:40:53;2.83;;;2.63;;
19038;SDS011;9652;49.014;12.052;2023-04-25T01:43:21;3.80;;;3.03;;
19038;SDS011;9652;49.014;12.052;2023-04-25T01:45:49;2.63;;;2.43;;
19038;SDS011;9652;49.014;12.052;2023-04-25T01:48:17;3.23;;;2.93;;
19038;SDS011;9652;49.014;12.052;2023-04-25T01:50:45;3.00;;;2.80;;
19038;SDS011;9652;49.014;12.052;2023-04-25T01:53:14;3.63;;;2.90;;
19038;SDS011;9652;49.014;12.052;2023-04-25T01:55:45;3.20;;;3.00;;
19038;SDS011;9652;49.014;12.052;2023-04-25T01:58:14;2.93;;;2.70;;
19038;SDS011;9652;49.014;12.052;2023-04-25T02:01:01;2.90;;;2.70;;
19038;SDS011;9652;49.014;12.052;2023-04-25T02:03:34;3.53;;;3.23;;
19038;SDS011;9652;49.014;12.052;2023-04-25T02:06:06;2.90;;;2.70;;
19038;SDS011;9652;49.014;12.052;2023-04-25T02:08:37;3.27;;;2.97;;
19038;SDS011;9652;49.014;12.052;2023-04-25T02:11:05;3.33;;;3.13;;
19038;SDS011;9652;49.014;12.052;2023-04-25T02:13:40;3.13;;;2.90;;
19038;SDS011;9652;49.014;12.052;2023-04-25T02:16:25;3.60;;;3.30;;
19038;SDS011;9652;49.014;12.052;2023-04-25T02:18:52;3.27;;;2.97;;
19038;SDS011;9652;49.014;12.052;2023-04-25T02:21:19;4.87;;;3.40;;
19038;SDS011;9652;49.014;12.052;2023-04-25T02:23:46;3.43;;;3.13;;
19038;SDS011;9652;49.014;12.052;2023-04-25T02:26:15;3.43;;;3.13;;
19038;SDS011;9652;49.014;12.052;2023-04-25T02:28:42;3.17;;;2.97;;
19038;SDS011;9652;49.014;12.052;2023-04-25T02:31:09;3.17;;;2.97;;
19038;SDS011;9652;49.014;12.052;2023-04-25T02:33:37;4.17;;;3.77;;
19038;SDS011;9652;49.014;12.052;2023-04-25T02:36:05;3.90;;;3.00;;
19038;SDS011;9652;49.014;12.052;2023-04-25T02:38:33;3.47;;;3.20;;
19038;SDS011;9652;49.014;12.052;2023-04-25T02:41:00;3.87;;;3.43;;
19038;SDS011;9652;49.014;12.052;2023-04-25T02:43:28;4.27;;;3.20;;
19038;SDS011;9652;49.014;12.052;2023-04-25T02:45:55;3.50;;;3.20;;
19038;SDS011;9652;49.014;12.052;2023-04-25T02:48:22;3.40;;;3.10;;
19038;SDS011;9652;49.014;12.052;2023-04-25T02:50:49;8.77;;;3.80;;
19038;SDS011;9652;49.014;12.052;2023-04-25T02:53:16;4.07;;;3.77;;
19038;SDS011;9652;49.014;12.052;2023-04-25T02:55:47;5.33;;;3.40;;
19038;SDS011;9652;49.014;12.052;2023-04-25T02:58:15;3.73;;;3.43;;
19038;SDS011;9652;49.014;12.052;2023-04-25T03:00:49;3.57;;;3.23;;
19038;SDS011;9652;49.014;12.052;2023-04-25T03:03:16;3.40;;;3.10;;
19038;SDS011;9652;49.014;12.052;2023-04-25T03:05:46;2.90;;;2.70;;
19038;SDS011;9652;49.014;12.052;2023-04-25T03:08:16;3.23;;;2.93;;
19038;SDS011;9652;49.014;12.052;2023-04-25T03:10:44;3.50;;;3.20;;
19038;SDS011;9652;49.014;12.052;2023-04-25T03:13:13;3.00;;;2.80;;
19038;SDS011;9652;49.014;12.052;2023-04-25T03:15:42;3.70;;;3.40;;
19038;SDS011;9652;49.014;12.052;2023-04-25T03:18:11;3.57;;;3.30;;
19038;SDS011;9652;49.014;12.052;2023-04-25T03:20:39;3.20;;;3.00;;
19038;SDS011;9652;49.014;12.052;2023-04-25T03:23:08;2.87;;;2.67;;
19038;SDS011;9652;49.014;12.052;2023-04-25T03:25:35;2.80;;;2.50;;
19038;SDS011;9652;49.014;12.052;2023-04-25T03:28:03;3.90;;;3.50;;
19038;SDS011;9652;49.014;12.052;2023-04-25T03:30:31;3.30;;;3.00;;
19038;SDS011;9652;49.014;12.052;2023-04-25T03:32:58;3.03;;;2.77;;
19038;SDS011;9652;49.014;12.052;2023-04-25T03:35:27;3.50;;;3.20;;
19038;SDS011;9652;49.014;12.052;2023-04-25T03:37:54;3.27;;;2.80;;
19038;SDS011;9652;49.014;12.052;2023-04-25T03:40:27;3.30;;;3.00;;
19038;SDS011;9652;49.014;12.052;2023-04-25T03:43:12;4.97;;;3.63;;
19038;SDS011;9652;49.014;12.052;2023-04-25T03:45:46;3.10;;;2.90;;
19038;SDS011;9652;49.014;12.052;2023-04-25T03:48:14;3.63;;;3.33;;
19038;SDS011;9652;49.014;12.052;2023-04-25T03:50:43;4.17;;;2.57;;
19038;SDS011;9652;49.014;12.052;2023-04-25T03:53:10;3.27;;;2.97;;
19038;SDS011;9652;49.014;12.052;2023-04-25T03:56:00;3.37;;;3.17;;
19038;SDS011;9652;49.014;12.052;2023-04-25T03:58:31;3.37;;;3.07;;
19038;SDS011;9652;49.014;12.052;2023-04-25T04:00:58;3.00;;;2.73;;
19038;SDS011;9652;49.014;12.052;2023-04-25T04:03:25;4.17;;;3.37;;
19038;SDS011;9652;49.014;12.052;2023-04-25T04:05:55;3.20;;;3.00;;
19038;SDS011;9652;49.014;12.052;2023-04-25T04:08:22;3.00;;;2.70;;
19038;SDS011;9652;49.014;12.052;2023-04-25T04:10:49;3.10;;;2.90;;
19038;SDS011;9652;49.014;12.052;2023-04-25T04:13:16;3.60;;;3.30;;
19038;SDS011;9652;49.014;12.052;2023-04-25T04:15:44;2.87;;;2.67;;
19038;SDS011;9652;49.014;12.052;2023-04-25T04:18:12;3.13;;;2.83;;
19038;SDS011;9652;49.014;12.052;2023-04-25T04:20:39;3.10;;;2.90;;
19038;SDS011;9652;49.014;12.052;2023-04-25T04:23:08;2.90;;;2.70;;
19038;SDS011;9652;49.014;12.052;2023-04-25T04:25:35;3.40;;;3.17;;
19038;SDS011;9652;49.014;12.052;2023-04-25T04:28:07;3.00;;;2.80;;
19038;SDS011;9652;49.014;12.052;2023-04-25T04:31:02;2.90;;;2.70;;
19038;SDS011;9652;49.014;12.052;2023-04-25T04:33:29;3.47;;;3.00;;
19038;SDS011;9652;49.014;12.052;2023-04-25T04:36:00;2.47;;;2.27;;
19038;SDS011;9652;49.014;12.052;2023-04-25T04:38:29;2.97;;;2.77;;
19038;SDS011;9652;49.014;12.052;2023-04-25T04:41:00;3.40;;;3.10;;
19038;SDS011;9652;49.014;12.052;2023-04-25T04:43:39;3.17;;;2.87;;
19038;SDS011;9652;49.014;12.052;2023-04-25T04:46:15;2.93;;;2.70;;
19038;SDS011;9652;49.014;12.052;2023-04-25T04:49:10;2.97;;;2.77;;
19038;SDS011;9652;49.014;12.052;2023-04-25T04:51:51;3.77;;;2.50;;
19038;SDS011;9652;49.014;12.052;2023-04-25T04:54:50;3.27;;;2.83;;
19038;SDS011;9652;49.014;12.052;2023-04-25T04:57:30;3.37;;;3.00;;
19038;SDS011;9652;49.014;12.052;2023-04-25T05:00:20;2.90;;;2.70;;
19038;SDS011;9652;49.014;12.052;2023-04-25T05:03:06;3.50;;;3.20;;
19038;SDS011;9652;49.014;12.052;2023-04-25T05:05:41;3.10;;;2.90;;
19038;SDS011;9652;49.014;12.052;2023-04-25T05:08:26;3.83;;;3.10;;
19038;SDS011;9652;49.014;12.052;2023-04-25T05:11:23;3.07;;;2.87;;
19038;SDS011;9652;49.014;12.052;2023-04-25T05:13:58;4.33;;;3.60;;
19038;SDS011;9652;49.014;12.052;2023-04-25T05:16:48;3.43;;;3.23;;
19038;SDS011;9652;49.014;12.052;2023-04-25T05:19:22;3.30;;;3.00;;
19038;SDS011;9652;49.014;12.052;2023-04-25T05:22:09;4.13;;;3.73;;
19038;SDS011;9652;49.014;12.052;2023-04-25T05:24:49;3.80;;;3.50;;
19038;SDS011;9652;49.014;12.052;2023-04-25T05:27:38;3.90;;;3.37;;
19038;SDS011;9652;49.014;12.052;2023-04-25T05:30:29;4.47;;;4.07;;
19038;SDS011;9652;49.014;12.052;2023-04-25T05:33:03;4.43;;;4.00;;
19038;SDS011;9652;49.014;12.052;2023-04-25T05:35:31;4.37;;;3.97;;
19038;SDS011;9652;49.014;12.052;2023-04-25T05:37:59;4.07;;;3.77;;
19038;SDS011;9652;49.014;12.052;2023-04-25T05:40:45;4.00;;;3.60;;
19038;SDS011;9652;49.014;12.052;2023-04-25T05:43:33;4.63;;;4.00;;
19038;SDS011;9652;49.014;12.052;2023-04-25T05:46:20;4.10;;;3.80;;
19038;SDS011;9652;49.014;12.052;2023-04-25T05:49:08;4.03;;;3.73;;
19038;SDS011;9652;49.014;12.052;2023-04-25T05:51:56;5.73;;;3.03;;
19038;SDS011;9652;49.014;12.052;2023-04-25T05:54:49;3.57;;;3.27;;
19038;SDS011;9652;49.014;12.052;2023-04-25T05:57:20;3.77;;;3.47;;
19038;SDS011;9652;49.014;12.052;2023-04-25T05:59:50;3.40;;;3.10;;
19038;SDS011;9652;49.014;12.052;2023-04-25T06:02:18;3.57;;;3.27;;
19038;SDS011;9652;49.014;12.052;2023-04-25T06:04:48;3.20;;;2.90;;
19038;SDS011;9652;49.014;12.052;2023-04-25T06:07:16;3.77;;;2.87;;
19038;SDS011;9652;49.014;12.052;2023-04-25T06:09:44;3.00;;;2.80;;
19038;SDS011;9652;49.014;12.052;2023-04-25T06:12:11;3.37;;;2.70;;
19038;SDS011;9652;49.014;12.052;2023-04-25T06:14:38;3.07;;;2.60;;
19038;SDS011;9652;49.014;12.052;2023-04-25T06:17:06;3.00;;;2.70;;
19038;SDS011;9652;49.014;12.052;2023-04-25T06:19:34;2.97;;;2.50;;
19038;SDS011;9652;49.014;12.052;2023-04-25T06:22:02;2.97;;;2.67;;
19038;SDS011;9652;49.014;12.052;2023-04-25T06:24:30;2.80;;;2.60;;
19038;SDS011;9652;49.014;12.052;2023-04-25T06:26:57;2.60;;;2.40;;
19038;SDS011;9652;49.014;12.052;2023-04-25T06:29:25;2.90;;;2.60;;
19038;SDS011;9652;49.014;12.052;2023-04-25T06:31:52;2.70;;;2.50;;
19038;SDS011;9652;49.014;12.052;2023-04-25T06:34:21;4.07;;;2.97;;
19038;SDS011;9652;49.014;12.052;2023-04-25T06:36:49;4.67;;;2.67;;
19038;SDS011;9652;49.014;12.052;2023-04-25T06:39:16;2.80;;;2.50;;
19038;SDS011;9652;49.014;12.052;2023-04-25T06:41:45;2.40;;;2.20;;
19038;SDS011;9652;49.014;12.052;2023-04-25T06:44:34;2.47;;;2.27;;
19038;SDS011;9652;49.014;12.052;2023-04-25T06:47:03;2.67;;;2.43;;
19038;SDS011;9652;49.014;12.052;2023-04-25T06:49:31;3.20;;;2.40;;
19038;SDS011;9652;49.014;12.052;2023-04-25T06:51:59;2.90;;;2.60;;
19038;SDS011;9652;49.014;12.052;2023-04-25T06:54:26;3.23;;;2.63;;
19038;SDS011;9652;49.014;12.052;2023-04-25T06:57:02;3.17;;;2.87;;
19038;SDS011;9652;49.014;12.052;2023-04-25T06:59:31;3.93;;;2.27;;
19038;SDS011;9652;49.014;12.052;2023-04-25T07:01:58;2.73;;;2.53;;
19038;SDS011;9652;49.014;12.052;2023-04-25T07:04:25;2.27;;;2.00;;
19038;SDS011;9652;49.014;12.052;2023-04-25T07:06:56;3.60;;;2.07;;
19038;SDS011;9652;49.014;12.052;2023-04-25T07:09:38;2.40;;;2.20;;
19038;SDS011;9652;49.014;12.052;2023-04-25T07:12:06;2.87;;;2.47;;
19038;SDS011;9652;49.014;12.052;2023-04-25T07:14:33;2.63;;;2.43;;
19038;SDS011;9652;49.014;12.052;2023-04-25T07:17:00;3.27;;;2.20;;
19038;SDS011;9652;49.014;12.052;2023-04-25T07:19:30;3.00;;;2.60;;
19038;SDS011;9652;49.014;12.052;2023-04-25T07:22:01;3.17;;;2.67;;
19038;SDS011;9652;49.014;12.052;2023-04-25T07:24:30;2.90;;;2.60;;
19038;SDS011;9652;49.014;12.052;2023-04-25T07:26:57;2.67;;;2.47;;
19038;SDS011;9652;49.014;12.052;2023-04-25T07:29:39;3.20;;;2.40;;
19038;SDS011;9652;49.014;12.052;2023-04-25T07:32:07;2.57;;;2.37;;
19038;SDS011;9652;49.014;12.052;2023-04-25T07:34:35;3.00;;;2.23;;
19038;SDS011;9652;49.014;12.052;2023-04-25T07:37:05;2.37;;;2.17;;
19038;SDS011;9652;49.014;12.052;2023-04-25T07:39:41;2.40;;;2.20;;
19038;SDS011;9652;49.014;12.052;2023-04-25T07:42:09;2.50;;;2.30;;
19038;SDS011;9652;49.014;12.052;2023-04-25T07:44:42;2.60;;;2.40;;
19038;SDS011;9652;49.014;12.052;2023-04-25T07:47:12;2.83;;;2.37;;
19038;SDS011;9652;49.014;12.052;2023-04-25T07:49:40;2.47;;;2.27;;
19038;SDS011;9652;49.014;12.052;2023-04-25T07:52:09;2.57;;;2.37;;
19038;SDS011;9652;49.014;12.052;2023-04-25T07:54:39;2.40;;;2.20;;
19038;SDS011;9652;49.014;12.052;2023-04-25T07:57:13;2.40;;;2.20;;
19038;SDS011;9652;49.014;12.052;2023-04-25T07:59:43;2.47;;;2.27;;
19038;SDS011;9652;49.014;12.052;2023-04-25T08:02:10;2.77;;;2.47;;
19038;SDS011;9652;49.014;12.052;2023-04-25T08:04:38;3.00;;;2.70;;
19038;SDS011;9652;49.014;12.052;2023-04-25T08:07:09;2.60;;;2.40;;
19038;SDS011;9652;49.014;12.052;2023-04-25T08:09:47;3.40;;;2.23;;
19038;SDS011;9652;49.014;12.052;2023-04-25T08:12:23;2.53;;;1.90;;
19038;SDS011;9652;49.014;12.052;2023-04-25T08:14:51;2.53;;;2.33;;
19038;SDS011;9652;49.014;12.052;2023-04-25T08:17:19;2.40;;;2.10;;
19038;SDS011;9652;49.014;12.052;2023-04-25T08:19:46;3.83;;;2.37;;
19038;SDS011;9652;49.014;12.052;2023-04-25T08:22:23;3.37;;;2.20;;
19038;SDS011;9652;49.014;12.052;2023-04-25T08:24:59;2.43;;;2.23;;
19038;SDS011;9652;49.014;12.052;2023-04-25T08:27:26;2.20;;;2.00;;
19038;SDS011;9652;49.014;12.052;2023-04-25T08:29:53;2.20;;;2.00;;
19038;SDS011;9652;49.014;12.052;2023-04-25T08:32:20;2.20;;;2.00;;
19038;SDS011;9652;49.014;12.052;2023-04-25T08:35:16;3.23;;;2.33;;
19038;SDS011;9652;49.014;12.052;2023-04-25T08:37:45;2.23;;;2.03;;
19038;SDS011;9652;49.014;12.052;2023-04-25T08:40:14;2.17;;;1.97;;
19038;SDS011;9652;49.014;12.052;2023-04-25T08:42:49;2.40;;;2.20;;
19038;SDS011;9652;49.014;12.052;2023-04-25T08:45:20;2.13;;;2.03;;
19038;SDS011;9652;49.014;12.052;2023-04-25T08:47:49;2.30;;;2.10;;
19038;SDS011;9652;49.014;12.052;2023-04-25T08:50:19;2.20;;;2.00;;
19038;SDS011;9652;49.014;12.052;2023-04-25T08:52:53;3.17;;;2.23;;
19038;SDS011;9652;49.014;12.052;2023-04-25T08:55:24;2.20;;;2.00;;
19038;SDS011;9652;49.014;12.052;2023-04-25T08:57:56;2.53;;;2.17;;
19038;SDS011;9652;49.014;12.052;2023-04-25T09:00:26;2.93;;;2.07;;
19038;SDS011;9652;49.014;12.052;2023-04-25T09:02:55;2.37;;;2.10;;
19038;SDS011;9652;49.014;12.052;2023-04-25T09:05:28;2.60;;;2.40;;
19038;SDS011;9652;49.014;12.052;2023-04-25T09:07:57;2.27;;;2.07;;
19038;SDS011;9652;49.014;12.052;2023-04-25T09:10:26;1.80;;;1.70;;
19038;SDS011;9652;49.014;12.052;2023-04-25T09:13:02;2.33;;;1.80;;
19038;SDS011;9652;49.014;12.052;2023-04-25T09:15:48;3.97;;;1.70;;
19038;SDS011;9652;49.014;12.052;2023-04-25T09:18:32;2.50;;;2.30;;
19038;SDS011;9652;49.014;12.052;2023-04-25T09:21:05;2.40;;;2.17;;
19038;SDS011;9652;49.014;12.052;2023-04-25T09:23:40;1.80;;;1.70;;
19038;SDS011;9652;49.014;12.052;2023-04-25T09:26:10;2.50;;;2.30;;
19038;SDS011;9652;49.014;12.052;2023-04-25T09:28:40;2.90;;;2.70;;
19038;SDS011;9652;49.014;12.052;2023-04-25T09:31:09;2.40;;;2.20;;
19038;SDS011;9652;49.014;12.052;2023-04-25T09:33:43;2.07;;;1.87;;
19038;SDS011;9652;49.014;12.052;2023-04-25T09:36:11;2.87;;;1.63;;
19038;SDS011;9652;49.014;12.052;2023-04-25T09:38:51;1.33;;;1.23;;
19038;SDS011;9652;49.014;12.052;2023-04-25T09:41:37;1.63;;;1.53;;
19038;SDS011;9652;49.014;12.052;2023-04-25T09:44:06;1.47;;;1.37;;
19038;SDS011;9652;49.014;12.052;2023-04-25T09:46:36;1.90;;;1.80;;
19038;SDS011;9652;49.014;12.052;2023-04-25T09:49:12;2.20;;;2.00;;
19038;SDS011;9652;49.014;12.052;2023-04-25T09:51:59;2.60;;;1.90;;
19038;SDS011;9652;49.014;12.052;2023-04-25T09:54:33;4.47;;;1.97;;
19038;SDS011;9652;49.014;12.052;2023-04-25T09:57:10;2.40;;;2.30;;
19038;SDS011;9652;49.014;12.052;2023-04-25T09:59:42;2.33;;;2.10;;
19038;SDS011;9652;49.014;12.052;2023-04-25T10:02:12;2.77;;;2.23;;
19038;SDS011;9652;49.014;12.052;2023-04-25T10:04:44;2.10;;;1.90;;
19038;SDS011;9652;49.014;12.052;2023-04-25T10:07:36;2.07;;;1.97;;
19038;SDS011;9652;49.014;12.052;2023-04-25T10:10:11;1.97;;;1.87;;
19038;SDS011;9652;49.014;12.052;2023-04-25T10:12:39;2.17;;;1.40;;
19038;SDS011;9652;49.014;12.052;2023-04-25T10:15:08;1.70;;;1.60;;
19038;SDS011;9652;49.014;12.052;2023-04-25T10:17:37;2.37;;;1.80;;
19038;SDS011;9652;49.014;12.052;2023-04-25T10:20:06;1.77;;;1.63;;
19038;SDS011;9652;49.014;12.052;2023-04-25T10:22:36;2.60;;;1.60;;
19038;SDS011;9652;49.014;12.052;2023-04-25T10:25:07;1.80;;;1.70;;
19038;SDS011;9652;49.014;12.052;2023-04-25T10:27:38;2.90;;;2.00;;
19038;SDS011;9652;49.014;12.052;2023-04-25T10:30:06;2.53;;;2.33;;
19038;SDS011;9652;49.014;12.052;2023-04-25T10:32:37;2.63;;;2.43;;
19038;SDS011;9652;49.014;12.052;2023-04-25T10:35:11;3.07;;;2.57;;
19038;SDS011;9652;49.014;12.052;2023-04-25T10:37:57;4.03;;;3.00;;
19038;SDS011;9652;49.014;12.052;2023-04-25T10:40:30;4.37;;;2.70;;
19038;SDS011;9652;49.014;12.052;2023-04-25T10:46:12;3.80;;;2.60;;
19038;SDS011;9652;49.014;12.052;2023-04-25T10:48:45;2.57;;;2.37;;
19038;SDS011;9652;49.014;12.052;2023-04-25T10:51:19;2.67;;;2.43;;
19038;SDS011;9652;49.014;12.052;2023-04-25T10:53:56;2.87;;;2.57;;
19038;SDS011;9652;49.014;12.052;2023-04-25T10:56:27;3.00;;;2.73;;
19038;SDS011;9652;49.014;12.052;2023-04-25T10:59:04;2.57;;;2.37;;
19038;SDS011;9652;49.014;12.052;2023-04-25T11:01:36;2.37;;;2.13;;
19038;SDS011;9652;49.014;12.052;2023-04-25T11:04:05;3.07;;;2.23;;
19038;SDS011;9652;49.014;12.052;2023-04-25T11:06:46;1.80;;;1.70;;
19038;SDS011;9652;49.014;12.052;2023-04-25T11:09:28;2.13;;;1.80;;
19038;SDS011;9652;49.014;12.052;2023-04-25T11:11:56;1.70;;;1.60;;
19038;SDS011;9652;49.014;12.052;2023-04-25T11:14:26;1.50;;;1.40;;
19038;SDS011;9652;49.014;12.052;2023-04-25T11:16:53;1.63;;;1.53;;
19038;SDS011;9652;49.014;12.052;2023-04-25T11:19:21;1.57;;;1.10;;
19038;SDS011;9652;49.014;12.052;2023-04-25T11:21:48;1.67;;;1.27;;
19038;SDS011;9652;49.014;12.052;2023-04-25T11:24:16;0.90;;;0.90;;
19038;SDS011;9652;49.014;12.052;2023-04-25T11:26:43;1.90;;;1.60;;
19038;SDS011;9652;49.014;12.052;2023-04-25T11:29:13;1.43;;;1.33;;
19038;SDS011;9652;49.014;12.052;2023-04-25T11:31:44;1.50;;;1.40;;
19038;SDS011;9652;49.014;12.052;2023-04-25T11:34:11;1.43;;;1.33;;
19038;SDS011;9652;49.014;12.052;2023-04-25T11:36:43;1.47;;;1.37;;
19038;SDS011;9652;49.014;12.052;2023-04-25T11:39:12;1.70;;;1.60;;
19038;SDS011;9652;49.014;12.052;2023-04-25T11:41:40;1.77;;;1.67;;
19038;SDS011;9652;49.014;12.052;2023-04-25T11:44:08;1.60;;;1.50;;
19038;SDS011;9652;49.014;12.052;2023-04-25T11:46:35;1.80;;;1.70;;
19038;SDS011;9652;49.014;12.052;2023-04-25T11:49:03;1.73;;;1.63;;
19038;SDS011;9652;49.014;12.052;2023-04-25T11:51:37;1.60;;;1.50;;
19038;SDS011;9652;49.014;12.052;2023-04-25T11:54:05;1.87;;;1.70;;
19038;SDS011;9652;49.014;12.052;2023-04-25T11:56:33;1.50;;;1.40;;
19038;SDS011;9652;49.014;12.052;2023-04-25T11:59:00;2.83;;;1.50;;
19038;SDS011;9652;49.014;12.052;2023-04-25T12:01:29;1.50;;;1.40;;
19038;SDS011;9652;49.014;12.052;2023-04-25T12:04:11;1.53;;;1.43;;
19038;SDS011;9652;49.014;12.052;2023-04-25T12:06:40;1.57;;;1.30;;
19038;SDS011;9652;49.014;12.052;2023-04-25T12:09:09;1.40;;;1.30;;
19038;SDS011;9652;49.014;12.052;2023-04-25T12:11:41;1.90;;;1.80;;
19038;SDS011;9652;49.014;12.052;2023-04-25T12:14:09;1.73;;;1.63;;
19038;SDS011;9652;49.014;12.052;2023-04-25T12:16:40;2.13;;;1.93;;
19038;SDS011;9652;49.014;12.052;2023-04-25T12:19:08;1.37;;;1.27;;
19038;SDS011;9652;49.014;12.052;2023-04-25T12:21:40;1.90;;;1.80;;
19038;SDS011;9652;49.014;12.052;2023-04-25T12:24:10;2.00;;;1.80;;
19038;SDS011;9652;49.014;12.052;2023-04-25T12:26:50;2.57;;;2.00;;
19038;SDS011;9652;49.014;12.052;2023-04-25T12:29:19;1.83;;;1.40;;
19038;SDS011;9652;49.014;12.052;2023-04-25T12:31:47;1.53;;;1.43;;
19038;SDS011;9652;49.014;12.052;2023-04-25T12:34:17;2.27;;;1.77;;
19038;SDS011;9652;49.014;12.052;2023-04-25T12:36:45;1.97;;;1.67;;
19038;SDS011;9652;49.014;12.052;2023-04-25T12:39:14;2.60;;;1.60;;
19038;SDS011;9652;49.014;12.052;2023-04-25T12:41:42;1.70;;;1.60;;
19038;SDS011;9652;49.014;12.052;2023-04-25T12:44:09;2.03;;;1.23;;
19038;SDS011;9652;49.014;12.052;2023-04-25T12:46:37;1.77;;;1.40;;
19038;SDS011;9652;49.014;12.052;2023-04-25T12:49:05;1.50;;;1.40;;
19038;SDS011;9652;49.014;12.052;2023-04-25T12:51:35;1.40;;;1.23;;
19038;SDS011;9652;49.014;12.052;2023-04-25T12:54:03;1.37;;;1.27;;
19038;SDS011;9652;49.014;12.052;2023-04-25T12:56:32;1.50;;;1.30;;
19038;SDS011;9652;49.014;12.052;2023-04-25T12:58:59;2.70;;;1.30;;
19038;SDS011;9652;49.014;12.052;2023-04-25T13:01:26;1.37;;;1.27;;
19038;SDS011;9652;49.014;12.052;2023-04-25T13:03:53;1.53;;;1.30;;
19038;SDS011;9652;49.014;12.052;2023-04-25T13:06:21;1.00;;;1.00;;
19038;SDS011;9652;49.014;12.052;2023-04-25T13:08:50;1.90;;;1.43;;
19038;SDS011;9652;49.014;12.052;2023-04-25T13:11:17;1.40;;;1.07;;
19038;SDS011;9652;49.014;12.052;2023-04-25T13:13:44;1.90;;;1.50;;
19038;SDS011;9652;49.014;12.052;2023-04-25T13:16:11;1.67;;;1.57;;
19038;SDS011;9652;49.014;12.052;2023-04-25T13:18:39;3.57;;;1.60;;
19038;SDS011;9652;49.014;12.052;2023-04-25T13:21:07;1.77;;;1.60;;
19038;SDS011;9652;49.014;12.052;2023-04-25T13:23:36;1.50;;;1.40;;
19038;SDS011;9652;49.014;12.052;2023-04-25T13:26:05;1.50;;;1.40;;
19038;SDS011;9652;49.014;12.052;2023-04-25T13:28:32;1.70;;;1.60;;
19038;SDS011;9652;49.014;12.052;2023-04-25T13:30:59;1.50;;;1.40;;
19038;SDS011;9652;49.014;12.052;2023-04-25T13:33:26;2.33;;;1.60;;
19038;SDS011;9652;49.014;12.052;2023-04-25T13:35:53;1.53;;;1.43;;
19038;SDS011;9652;49.014;12.052;2023-04-25T13:38:22;3.60;;;1.93;;
19038;SDS011;9652;49.014;12.052;2023-04-25T13:40:50;2.60;;;1.60;;
19038;SDS011;9652;49.014;12.052;2023-04-25T13:43:20;2.10;;;1.50;;
19038;SDS011;9652;49.014;12.052;2023-04-25T13:45:47;1.83;;;1.73;;
19038;SDS011;9652;49.014;12.052;2023-04-25T13:48:17;2.70;;;2.40;;
19038;SDS011;9652;49.014;12.052;2023-04-25T13:50:45;2.30;;;2.10;;
19038;SDS011;9652;49.014;12.052;2023-04-25T13:53:12;3.13;;;2.73;;
19038;SDS011;9652;49.014;12.052;2023-04-25T13:55:39;2.37;;;1.93;;
19038;SDS011;9652;49.014;12.052;2023-04-25T13:58:06;2.20;;;2.00;;
19038;SDS011;9652;49.014;12.052;2023-04-25T14:00:36;1.87;;;1.63;;
19038;SDS011;9652;49.014;12.052;2023-04-25T14:03:05;1.73;;;1.63;;
19038;SDS011;9652;49.014;12.052;2023-04-25T14:05:33;2.10;;;1.80;;
19038;SDS011;9652;49.014;12.052;2023-04-25T14:08:04;1.80;;;1.70;;
19038;SDS011;9652;49.014;12.052;2023-04-25T14:10:35;2.33;;;1.70;;
19038;SDS011;9652;49.014;12.052;2023-04-25T14:13:03;2.00;;;1.70;;
19038;SDS011;9652;49.014;12.052;2023-04-25T14:15:31;1.80;;;1.60;;
19038;SDS011;9652;49.014;12.052;2023-04-25T14:18:00;2.87;;;1.67;;
19038;SDS011;9652;49.014;12.052;2023-04-25T14:20:28;1.93;;;1.67;;
19038;SDS011;9652;49.014;12.052;2023-04-25T14:22:55;3.77;;;1.60;;
19038;SDS011;9652;49.014;12.052;2023-04-25T14:25:23;1.30;;;1.10;;
19038;SDS011;9652;49.014;12.052;2023-04-25T14:27:50;1.90;;;1.00;;
19038;SDS011;9652;49.014;12.052;2023-04-25T14:30:18;0.90;;;0.90;;
19038;SDS011;9652;49.014;12.052;2023-04-25T14:32:46;2.10;;;1.00;;
19038;SDS011;9652;49.014;12.052;2023-04-25T14:35:16;1.37;;;0.80;;
19038;SDS011;9652;49.014;12.052;2023-04-25T14:37:43;0.80;;;0.80;;
19038;SDS011;9652;49.014;12.052;2023-04-25T14:40:10;0.90;;;0.90;;
19038;SDS011;9652;49.014;12.052;2023-04-25T14:42:40;1.17;;;1.07;;
19038;SDS011;9652;49.014;12.052;2023-04-25T14:45:07;1.33;;;0.83;;
19038;SDS011;9652;49.014;12.052;2023-04-25T14:47:35;1.37;;;0.90;;
19038;SDS011;9652;49.014;12.052;2023-04-25T14:50:03;1.50;;;0.93;;
19038;SDS011;9652;49.014;12.052;2023-04-25T14:52:33;1.10;;;1.00;;
19038;SDS011;9652;49.014;12.052;2023-04-25T14:55:00;1.07;;;0.97;;
19038;SDS011;9652;49.014;12.052;2023-04-25T14:57:30;0.80;;;0.80;;
19038;SDS011;9652;49.014;12.052;2023-04-25T14:59:57;1.10;;;1.00;;
19038;SDS011;9652;49.014;12.052;2023-04-25T15:02:24;1.33;;;1.00;;
19038;SDS011;9652;49.014;12.052;2023-04-25T15:04:52;1.20;;;1.07;;
19038;SDS011;9652;49.014;12.052;2023-04-25T15:07:20;1.07;;;0.93;;
19038;SDS011;9652;49.014;12.052;2023-04-25T15:09:49;1.07;;;0.97;;
19038;SDS011;9652;49.014;12.052;2023-04-25T15:12:18;1.40;;;1.00;;
19038;SDS011;9652;49.014;12.052;2023-04-25T15:14:45;1.27;;;1.10;;